createdAt,value
2017-04-19T00:01:01.248Z,975.80
2017-04-19T00:02:03.631Z,975.81
2017-04-19T00:03:06.621Z,975.82
2017-04-19T00:04:08.990Z,975.81
2017-04-19T00:05:11.353Z,975.84
2017-04-19T00:06:13.729Z,975.88
2017-04-19T00:07:16.122Z,975.85
2017-04-19T00:08:19.093Z,975.87
2017-04-19T00:09:21.474Z,975.88
2017-04-19T00:10:23.838Z,975.92
2017-04-19T00:11:26.191Z,975.94
2017-04-19T00:12:28.566Z,975.96
2017-04-19T00:13:31.523Z,975.97
2017-04-19T00:14:33.884Z,975.98
2017-04-19T00:15:36.264Z,975.99
2017-04-19T00:16:38.625Z,975.97
2017-04-19T00:17:40.995Z,976.02
2017-04-19T00:18:43.909Z,976.04
2017-04-19T00:19:46.267Z,976.10
2017-04-19T00:20:48.670Z,976.09
2017-04-19T00:21:51.005Z,976.10
2017-04-19T00:22:53.372Z,976.15
2017-04-19T00:23:56.352Z,976.17
2017-04-19T00:24:58.714Z,976.15
2017-04-19T00:26:01.096Z,976.17
2017-04-19T00:27:03.437Z,976.16
2017-04-19T00:28:05.802Z,976.18
2017-04-19T00:29:08.769Z,976.20
2017-04-19T00:30:11.137Z,976.22
2017-04-19T00:31:13.497Z,976.22
2017-04-19T00:32:15.856Z,976.19
2017-04-19T00:33:18.229Z,976.24
2017-04-19T00:34:21.152Z,976.22
2017-04-19T00:35:23.530Z,976.23
2017-04-19T00:36:25.906Z,976.21
2017-04-19T00:37:28.271Z,976.24
2017-04-19T00:38:30.624Z,976.24
2017-04-19T00:39:33.539Z,976.24
2017-04-19T00:40:35.903Z,976.25
2017-04-19T00:41:38.269Z,976.28
2017-04-19T00:42:40.634Z,976.25
2017-04-19T00:43:43.003Z,976.28
2017-04-19T00:44:45.991Z,976.30
2017-04-19T00:45:48.361Z,976.27
2017-04-19T00:46:50.737Z,976.28
2017-04-19T00:47:53.106Z,976.26
2017-04-19T00:48:55.489Z,976.23
2017-04-19T00:49:58.462Z,976.24
2017-04-19T00:51:00.831Z,976.21
2017-04-19T00:52:03.200Z,976.24
2017-04-19T00:53:05.558Z,976.24
2017-04-19T00:54:07.934Z,976.28
2017-04-19T00:55:10.892Z,976.24
2017-04-19T00:56:13.257Z,976.25
2017-04-19T00:57:15.639Z,976.29
2017-04-19T00:58:18.000Z,976.25
2017-04-19T00:59:20.374Z,976.27
2017-04-19T01:00:23.328Z,976.28
2017-04-19T01:01:25.694Z,976.29
2017-04-19T01:02:28.081Z,976.28
2017-04-19T01:03:30.449Z,976.28
2017-04-19T01:04:32.820Z,976.30
2017-04-19T01:05:35.780Z,976.29
2017-04-19T01:06:38.145Z,976.30
2017-04-19T01:07:40.510Z,976.34
2017-04-19T01:08:42.867Z,976.32
2017-04-19T01:09:45.231Z,976.32
2017-04-19T01:10:48.185Z,976.31
2017-04-19T01:11:50.550Z,976.30
2017-04-19T01:12:52.925Z,976.34
2017-04-19T01:13:55.278Z,976.35
2017-04-19T01:14:57.647Z,976.35
2017-04-19T01:16:00.568Z,976.33
2017-04-19T01:17:02.950Z,976.35
2017-04-19T01:18:05.311Z,976.35
2017-04-19T01:19:07.679Z,976.35
2017-04-19T01:20:10.041Z,976.37
2017-04-19T01:21:12.963Z,976.39
2017-04-19T01:22:15.329Z,976.38
2017-04-19T01:23:17.690Z,976.37
2017-04-19T01:24:20.051Z,976.41
2017-04-19T01:25:22.410Z,976.43
2017-04-19T01:26:25.328Z,976.41
2017-04-19T01:27:27.731Z,976.43
2017-04-19T01:28:30.099Z,976.48
2017-04-19T01:29:32.477Z,976.50
2017-04-19T01:30:34.841Z,976.52
2017-04-19T01:31:37.802Z,976.51
2017-04-19T01:32:40.166Z,976.54
2017-04-19T01:33:42.524Z,976.55
2017-04-19T01:34:44.889Z,976.55
2017-04-19T01:35:47.263Z,976.58
2017-04-19T01:36:50.221Z,976.61
2017-04-19T01:37:52.583Z,976.65
2017-04-19T01:38:54.946Z,976.68
2017-04-19T01:39:57.307Z,976.69
2017-04-19T01:40:59.675Z,976.74
2017-04-19T01:42:02.593Z,976.73
2017-04-19T01:43:04.945Z,976.78
2017-04-19T01:44:07.307Z,976.79
2017-04-19T01:45:09.680Z,976.77
2017-04-19T01:46:12.040Z,976.80
2017-04-19T01:47:15.017Z,976.81
2017-04-19T01:48:17.376Z,976.88
2017-04-19T01:49:19.736Z,976.87
2017-04-19T01:50:22.104Z,976.91
2017-04-19T01:51:24.475Z,976.92
2017-04-19T01:52:27.430Z,976.94
2017-04-19T01:53:29.791Z,976.95
2017-04-19T01:54:32.152Z,977.00
2017-04-19T01:55:34.513Z,977.01
2017-04-19T01:56:36.882Z,976.99
2017-04-19T01:57:39.792Z,977.03
2017-04-19T01:58:42.163Z,977.02
2017-04-19T01:59:44.518Z,977.08
2017-04-19T02:00:46.878Z,977.05
2017-04-19T02:01:49.242Z,977.05
2017-04-19T02:02:52.205Z,977.08
2017-04-19T02:03:54.571Z,977.12
2017-04-19T02:04:56.934Z,977.16
2017-04-19T02:05:59.301Z,977.11
2017-04-19T02:07:01.664Z,977.17
2017-04-19T02:08:04.651Z,977.09
2017-04-19T02:09:07.032Z,977.15
2017-04-19T02:10:09.387Z,977.18
2017-04-19T02:11:11.752Z,977.25
2017-04-19T02:12:14.115Z,977.24
2017-04-19T02:13:17.039Z,977.26
2017-04-19T02:14:19.405Z,977.32
2017-04-19T02:15:21.768Z,977.31
2017-04-19T02:16:24.131Z,977.33
2017-04-19T02:17:26.494Z,977.33
2017-04-19T02:18:29.458Z,977.34
2017-04-19T02:19:31.815Z,977.36
2017-04-19T02:20:34.188Z,977.41
2017-04-19T02:21:36.545Z,977.38
2017-04-19T02:22:38.918Z,977.41
2017-04-19T02:23:41.880Z,977.37
2017-04-19T02:24:44.247Z,977.36
2017-04-19T02:25:46.813Z,977.40
2017-04-19T02:26:49.185Z,977.42
2017-04-19T02:27:51.556Z,977.42
2017-04-19T02:28:54.523Z,977.47
2017-04-19T02:29:56.887Z,977.45
2017-04-19T02:30:59.258Z,977.49
2017-04-19T02:32:01.624Z,977.51
2017-04-19T02:33:03.985Z,977.50
2017-04-19T02:34:06.949Z,977.54
2017-04-19T02:35:09.329Z,977.56
2017-04-19T02:36:11.697Z,977.59
2017-04-19T02:37:14.058Z,977.59
2017-04-19T02:38:16.424Z,977.59
2017-04-19T02:39:19.414Z,977.63
2017-04-19T02:40:21.800Z,977.65
2017-04-19T02:41:24.163Z,977.65
2017-04-19T02:42:26.560Z,977.67
2017-04-19T02:43:28.933Z,977.69
2017-04-19T02:44:31.863Z,977.70
2017-04-19T02:45:34.237Z,977.70
2017-04-19T02:46:36.612Z,977.70
2017-04-19T02:47:38.984Z,977.72
2017-04-19T02:48:41.361Z,977.72
2017-04-19T02:49:44.388Z,977.77
2017-04-19T02:50:46.763Z,977.76
2017-04-19T02:51:49.136Z,977.80
2017-04-19T02:52:51.513Z,977.84
2017-04-19T02:53:53.881Z,977.84
2017-04-19T02:54:56.856Z,977.81
2017-04-19T02:55:59.228Z,977.82
2017-04-19T02:57:01.589Z,977.85
2017-04-19T02:58:03.958Z,977.83
2017-04-19T02:59:06.330Z,977.86
2017-04-19T03:00:09.289Z,977.87
2017-04-19T03:01:11.668Z,977.90
2017-04-19T03:02:14.237Z,977.92
2017-04-19T03:03:16.619Z,977.94
2017-04-19T03:04:18.980Z,977.93
2017-04-19T03:05:21.948Z,977.96
2017-04-19T03:06:24.306Z,977.96
2017-04-19T03:07:26.688Z,977.98
2017-04-19T03:08:29.075Z,977.96
2017-04-19T03:09:31.463Z,978.02
2017-04-19T03:10:34.433Z,978.02
2017-04-19T03:11:36.802Z,978.06
2017-04-19T03:12:39.185Z,978.06
2017-04-19T03:13:41.585Z,978.03
2017-04-19T03:14:43.949Z,978.05
2017-04-19T03:15:46.929Z,978.06
2017-04-19T03:16:49.304Z,978.06
2017-04-19T03:17:51.664Z,978.07
2017-04-19T03:18:54.036Z,978.07
2017-04-19T03:19:56.409Z,978.08
2017-04-19T03:20:59.385Z,978.07
2017-04-19T03:22:01.766Z,978.07
2017-04-19T03:23:04.155Z,978.08
2017-04-19T03:24:06.533Z,978.04
2017-04-19T03:25:08.927Z,978.08
2017-04-19T03:26:11.926Z,978.08
2017-04-19T03:27:14.287Z,978.09
2017-04-19T03:28:16.656Z,978.10
2017-04-19T03:29:19.023Z,978.09
2017-04-19T03:30:21.384Z,978.09
2017-04-19T03:31:24.354Z,978.08
2017-04-19T03:32:26.743Z,978.11
2017-04-19T03:33:29.118Z,978.09
2017-04-19T03:34:31.489Z,978.09
2017-04-19T03:35:33.882Z,978.12
2017-04-19T03:36:36.851Z,978.16
2017-04-19T03:37:39.216Z,978.13
2017-04-19T03:38:41.578Z,978.17
2017-04-19T03:39:43.956Z,978.22
2017-04-19T03:40:46.345Z,978.20
2017-04-19T03:41:49.310Z,978.19
2017-04-19T03:42:51.689Z,978.22
2017-04-19T03:43:54.074Z,978.25
2017-04-19T03:44:56.464Z,978.24
2017-04-19T03:45:58.848Z,978.25
2017-04-19T03:49:30.630Z,978.25
2017-04-19T03:50:33.016Z,978.24
2017-04-19T03:51:35.378Z,978.29
2017-04-19T03:52:38.307Z,978.31
2017-04-19T03:53:40.703Z,978.31
2017-04-19T03:54:43.091Z,978.31
2017-04-19T03:55:45.470Z,978.31
2017-04-19T03:56:47.858Z,978.31
2017-04-19T03:57:50.845Z,978.32
2017-04-19T03:58:53.217Z,978.34
2017-04-19T03:59:55.606Z,978.31
2017-04-19T04:00:57.995Z,978.33
2017-04-19T04:02:00.373Z,978.33
2017-04-19T04:03:03.364Z,978.31
2017-04-19T04:04:05.759Z,978.31
2017-04-19T04:05:08.164Z,978.31
2017-04-19T04:06:10.544Z,978.29
2017-04-19T04:07:12.938Z,978.33
2017-04-19T04:08:15.938Z,978.32
2017-04-19T04:09:18.324Z,978.35
2017-04-19T04:10:20.694Z,978.34
2017-04-19T04:11:23.066Z,978.31
2017-04-19T04:12:25.433Z,978.34
2017-04-19T04:13:28.415Z,978.31
2017-04-19T04:14:30.807Z,978.34
2017-04-19T04:15:33.207Z,978.35
2017-04-19T04:16:35.550Z,978.33
2017-04-19T04:17:37.920Z,978.33
2017-04-19T04:18:40.943Z,978.38
2017-04-19T04:19:43.298Z,978.38
2017-04-19T04:20:45.694Z,978.37
2017-04-19T04:21:48.086Z,978.35
2017-04-19T04:22:50.466Z,978.35
2017-04-19T04:23:53.450Z,978.37
2017-04-19T04:24:55.841Z,978.34
2017-04-19T04:25:58.220Z,978.34
2017-04-19T04:27:00.573Z,978.30
2017-04-19T04:28:02.963Z,978.33
2017-04-19T04:29:05.930Z,978.33
2017-04-19T04:30:08.321Z,978.34
2017-04-19T04:31:10.716Z,978.34
2017-04-19T04:32:13.117Z,978.34
2017-04-19T04:33:15.486Z,978.33
2017-04-19T04:34:18.453Z,978.31
2017-04-19T04:35:20.843Z,978.28
2017-04-19T04:36:23.212Z,978.31
2017-04-19T04:37:25.570Z,978.29
2017-04-19T04:38:27.953Z,978.31
2017-04-19T04:39:30.869Z,978.32
2017-04-19T04:40:33.258Z,978.34
2017-04-19T04:41:35.628Z,978.32
2017-04-19T04:42:38.003Z,978.31
2017-04-19T04:43:40.380Z,978.28
2017-04-19T04:44:43.379Z,978.31
2017-04-19T04:45:45.757Z,978.29
2017-04-19T04:46:48.130Z,978.30
2017-04-19T04:47:50.520Z,978.33
2017-04-19T04:48:52.882Z,978.37
2017-04-19T04:49:55.869Z,978.33
2017-04-19T04:50:58.230Z,978.35
2017-04-19T04:52:00.600Z,978.34
2017-04-19T04:53:02.977Z,978.35
2017-04-19T04:54:05.352Z,978.33
2017-04-19T04:55:08.275Z,978.32
2017-04-19T04:56:10.649Z,978.31
2017-04-19T04:57:13.006Z,978.31
2017-04-19T04:58:15.374Z,978.32
2017-04-19T04:59:17.746Z,978.31
2017-04-19T05:00:20.706Z,978.28
2017-04-19T05:01:23.103Z,978.30
2017-04-19T05:02:25.464Z,978.33
2017-04-19T05:03:27.824Z,978.30
2017-04-19T05:04:30.187Z,978.28
2017-04-19T05:05:33.177Z,978.31
2017-04-19T05:06:35.563Z,978.30
2017-04-19T05:07:37.948Z,978.28
2017-04-19T05:08:40.319Z,978.25
2017-04-19T05:09:42.673Z,978.28
2017-04-19T05:10:45.677Z,978.31
2017-04-19T05:11:48.056Z,978.27
2017-04-19T05:12:50.411Z,978.29
2017-04-19T05:13:52.778Z,978.26
2017-04-19T05:14:55.138Z,978.22
2017-04-19T05:15:58.102Z,978.23
2017-04-19T05:17:00.474Z,978.20
2017-04-19T05:18:02.825Z,978.20
2017-04-19T05:19:05.200Z,978.23
2017-04-19T05:20:07.579Z,978.22
2017-04-19T05:21:10.490Z,978.22
2017-04-19T05:22:12.850Z,978.23
2017-04-19T05:23:15.221Z,978.21
2017-04-19T05:24:17.584Z,978.20
2017-04-19T05:25:19.953Z,978.22
2017-04-19T05:26:22.913Z,978.21
2017-04-19T05:27:25.272Z,978.23
2017-04-19T05:28:27.631Z,978.16
2017-04-19T05:29:29.995Z,978.18
2017-04-19T05:30:32.354Z,978.16
2017-04-19T05:31:35.275Z,978.19
2017-04-19T05:32:37.632Z,978.16
2017-04-19T05:33:39.989Z,978.14
2017-04-19T05:34:42.348Z,978.11
2017-04-19T05:35:44.731Z,978.08
2017-04-19T05:36:47.638Z,978.08
2017-04-19T05:37:49.994Z,978.09
2017-04-19T05:38:52.365Z,978.05
2017-04-19T05:39:54.718Z,978.03
2017-04-19T05:40:57.082Z,978.02
2017-04-19T05:42:00.043Z,978.01
2017-04-19T05:43:02.398Z,977.98
2017-04-19T05:44:04.762Z,977.97
2017-04-19T05:45:07.122Z,977.93
2017-04-19T05:46:09.485Z,977.91
2017-04-19T05:47:12.437Z,977.91
2017-04-19T05:48:14.801Z,977.90
2017-04-19T05:49:17.157Z,977.87
2017-04-19T05:50:19.521Z,977.91
2017-04-19T05:51:21.875Z,977.89
2017-04-19T05:52:24.851Z,977.87
2017-04-19T05:53:27.211Z,977.85
2017-04-19T05:54:29.569Z,977.89
2017-04-19T05:55:31.923Z,977.86
2017-04-19T05:56:34.285Z,977.85
2017-04-19T05:57:37.208Z,977.85
2017-04-19T05:58:39.559Z,977.86
2017-04-19T05:59:41.917Z,977.85
2017-04-19T06:00:44.274Z,977.84
2017-04-19T06:01:46.646Z,977.85
2017-04-19T06:02:49.606Z,977.83
2017-04-19T06:03:51.961Z,977.81
2017-04-19T06:04:54.326Z,977.81
2017-04-19T06:05:56.678Z,977.81
2017-04-19T06:06:59.046Z,977.78
2017-04-19T06:08:02.004Z,977.73
2017-04-19T06:09:04.363Z,977.71
2017-04-19T06:10:06.723Z,977.73
2017-04-19T06:11:09.082Z,977.70
2017-04-19T06:12:11.444Z,977.70
2017-04-19T06:13:14.402Z,977.66
2017-04-19T06:14:16.764Z,977.64
2017-04-19T06:15:19.319Z,977.62
2017-04-19T06:16:21.687Z,977.63
2017-04-19T06:17:24.040Z,977.66
2017-04-19T06:18:27.003Z,977.61
2017-04-19T06:19:29.361Z,977.63
2017-04-19T06:20:31.719Z,977.63
2017-04-19T06:21:34.083Z,977.65
2017-04-19T06:22:36.442Z,977.67
2017-04-19T06:23:39.401Z,977.61
2017-04-19T06:24:41.766Z,977.59
2017-04-19T06:25:44.120Z,977.58
2017-04-19T06:26:46.482Z,977.57
2017-04-19T06:27:48.841Z,977.53
2017-04-19T06:28:51.799Z,977.57
2017-04-19T06:29:54.160Z,977.54
2017-04-19T06:30:56.521Z,977.50
2017-04-19T06:31:58.878Z,977.50
2017-04-19T06:33:01.242Z,977.47
2017-04-19T06:34:04.199Z,977.43
2017-04-19T06:35:06.574Z,977.45
2017-04-19T06:36:08.928Z,977.42
2017-04-19T06:37:11.289Z,977.38
2017-04-19T06:38:13.651Z,977.39
2017-04-19T06:39:16.613Z,977.37
2017-04-19T06:40:18.980Z,977.39
2017-04-19T06:41:21.338Z,977.38
2017-04-19T06:42:23.704Z,977.36
2017-04-19T06:43:26.059Z,977.33
2017-04-19T06:44:29.029Z,977.33
2017-04-19T06:45:31.382Z,977.32
2017-04-19T06:46:33.749Z,977.31
2017-04-19T06:47:36.107Z,977.28
2017-04-19T06:48:38.493Z,977.32
2017-04-19T06:49:41.425Z,977.28
2017-04-19T06:50:43.783Z,977.26
2017-04-19T06:51:46.140Z,977.28
2017-04-19T06:52:48.495Z,977.25
2017-04-19T06:53:50.870Z,977.27
2017-04-19T06:54:53.829Z,977.28
2017-04-19T06:55:56.187Z,977.28
2017-04-19T06:56:58.542Z,977.24
2017-04-19T06:58:00.905Z,977.28
2017-04-19T06:59:03.266Z,977.24
2017-04-19T07:00:06.230Z,977.21
2017-04-19T07:01:08.588Z,977.20
2017-04-19T07:02:10.953Z,977.19
2017-04-19T07:03:13.313Z,977.21
2017-04-19T07:04:15.674Z,977.25
2017-04-19T07:05:18.643Z,977.22
2017-04-19T07:06:20.997Z,977.21
2017-04-19T07:07:23.359Z,977.19
2017-04-19T07:08:25.725Z,977.17
2017-04-19T07:09:28.081Z,977.16
2017-04-19T07:10:31.053Z,977.16
2017-04-19T07:11:33.411Z,977.14
2017-04-19T07:12:35.772Z,977.15
2017-04-19T07:13:38.126Z,977.09
2017-04-19T07:14:40.492Z,977.09
2017-04-19T07:15:43.393Z,977.05
2017-04-19T07:16:45.757Z,977.06
2017-04-19T07:17:48.112Z,977.03
2017-04-19T07:18:50.481Z,977.05
2017-04-19T07:19:52.841Z,976.98
2017-04-19T07:20:55.800Z,976.98
2017-04-19T07:21:58.161Z,976.92
2017-04-19T07:23:00.524Z,976.93
2017-04-19T07:24:02.897Z,976.89
2017-04-19T07:25:05.274Z,976.85
2017-04-19T07:26:08.234Z,976.87
2017-04-19T07:27:10.593Z,976.85
2017-04-19T07:28:12.946Z,976.85
2017-04-19T07:29:15.307Z,976.87
2017-04-19T07:30:17.688Z,976.85
2017-04-19T07:31:20.638Z,976.84
2017-04-19T07:32:22.997Z,976.83
2017-04-19T07:33:25.360Z,976.81
2017-04-19T07:34:27.721Z,976.83
2017-04-19T07:35:30.081Z,976.82
2017-04-19T07:36:33.039Z,976.77
2017-04-19T07:37:35.407Z,976.77
2017-04-19T07:38:37.765Z,976.73
2017-04-19T07:39:40.119Z,976.70
2017-04-19T07:40:42.480Z,976.69
2017-04-19T07:41:45.396Z,976.67
2017-04-19T07:42:47.758Z,976.66
2017-04-19T07:43:50.114Z,976.65
2017-04-19T07:44:52.469Z,976.63
2017-04-19T07:45:54.830Z,976.61
2017-04-19T07:46:57.751Z,976.61
2017-04-19T07:48:00.106Z,976.58
2017-04-19T07:49:02.464Z,976.59
2017-04-19T07:50:04.825Z,976.55
2017-04-19T07:51:07.181Z,976.53
2017-04-19T07:52:10.150Z,976.49
2017-04-19T07:53:12.504Z,976.52
2017-04-19T07:54:14.869Z,976.48
2017-04-19T07:55:17.231Z,976.51
2017-04-19T07:56:19.599Z,976.49
2017-04-19T07:57:22.547Z,976.44
2017-04-19T07:58:24.907Z,976.43
2017-04-19T07:59:27.266Z,976.41
2017-04-19T08:00:29.632Z,976.40
2017-04-19T08:01:31.994Z,976.38
2017-04-19T08:02:34.952Z,976.37
2017-04-19T08:03:37.312Z,976.39
2017-04-19T08:04:39.669Z,976.36
2017-04-19T08:05:42.046Z,976.33
2017-04-19T08:06:44.400Z,976.35
2017-04-19T08:07:47.364Z,976.36
2017-04-19T08:08:49.725Z,976.33
2017-04-19T08:09:52.084Z,976.33
2017-04-19T08:10:54.459Z,976.35
2017-04-19T08:11:56.813Z,976.32
2017-04-19T08:12:59.772Z,976.34
2017-04-19T08:14:02.136Z,976.31
2017-04-19T08:15:04.492Z,976.30
2017-04-19T08:16:06.845Z,976.31
2017-04-19T08:17:09.215Z,976.28
2017-04-19T08:18:12.166Z,976.23
2017-04-19T08:19:14.529Z,976.25
2017-04-19T08:20:16.893Z,976.21
2017-04-19T08:21:19.241Z,976.20
2017-04-19T08:22:21.607Z,976.22
2017-04-19T08:23:24.566Z,976.17
2017-04-19T08:24:26.930Z,976.18
2017-04-19T08:25:29.288Z,976.16
2017-04-19T08:26:31.646Z,976.09
2017-04-19T08:27:34.010Z,976.08
2017-04-19T08:28:36.970Z,976.07
2017-04-19T08:29:39.346Z,976.05
2017-04-19T08:30:41.699Z,976.05
2017-04-19T08:31:44.053Z,976.04
2017-04-19T08:32:46.415Z,976.05
2017-04-19T08:33:49.374Z,976.05
2017-04-19T08:34:51.740Z,976.04
2017-04-19T08:35:54.101Z,976.02
2017-04-19T08:36:56.660Z,976.04
2017-04-19T08:37:59.032Z,976.01
2017-04-19T08:39:01.987Z,976.03
2017-04-19T08:40:04.355Z,976.03
2017-04-19T08:41:06.713Z,976.08
2017-04-19T08:42:09.077Z,976.02
2017-04-19T08:43:11.436Z,976.10
2017-04-19T08:44:14.398Z,976.07
2017-04-19T08:45:16.767Z,976.07
2017-04-19T08:46:19.124Z,976.05
2017-04-19T08:47:21.482Z,976.05
2017-04-19T08:48:23.856Z,976.03
2017-04-19T08:49:28.714Z,976.03
2017-04-19T08:50:31.271Z,976.00
2017-04-19T08:51:33.636Z,975.98
2017-04-19T08:52:35.996Z,976.00
2017-04-19T08:53:38.355Z,976.01
2017-04-19T08:54:41.328Z,976.01
2017-04-19T08:55:43.683Z,976.00
2017-04-19T08:56:46.042Z,976.02
2017-04-19T08:57:48.403Z,976.01
2017-04-19T08:58:50.762Z,976.02
2017-04-19T08:59:53.720Z,975.99
2017-04-19T09:00:56.080Z,976.02
2017-04-19T09:01:58.445Z,976.02
2017-04-19T09:03:00.815Z,976.01
2017-04-19T09:04:03.172Z,976.00
2017-04-19T09:05:06.134Z,976.03
2017-04-19T09:06:08.496Z,975.99
2017-04-19T09:07:10.850Z,976.01
2017-04-19T09:08:13.217Z,976.02
2017-04-19T09:09:15.570Z,975.98
2017-04-19T09:10:20.440Z,976.00
2017-04-19T09:11:22.800Z,976.01
2017-04-19T09:12:25.163Z,976.00
2017-04-19T09:13:27.517Z,976.02
2017-04-19T09:14:29.878Z,976.03
2017-04-19T09:15:32.789Z,976.04
2017-04-19T09:16:35.370Z,976.04
2017-04-19T09:17:37.718Z,976.09
2017-04-19T09:18:40.091Z,976.04
2017-04-19T09:19:42.441Z,976.04
2017-04-19T09:20:45.359Z,976.03
2017-04-19T09:21:47.716Z,976.06
2017-04-19T09:22:50.076Z,976.03
2017-04-19T09:23:52.438Z,976.05
2017-04-19T09:24:54.800Z,976.07
2017-04-19T09:25:57.715Z,976.06
2017-04-19T09:27:00.075Z,976.02
2017-04-19T09:28:02.437Z,976.04
2017-04-19T09:29:04.799Z,976.04
2017-04-19T09:30:07.166Z,976.04
2017-04-19T09:31:10.128Z,976.05
2017-04-19T09:32:12.500Z,976.03
2017-04-19T09:33:15.050Z,976.06
2017-04-19T09:34:17.418Z,976.04
2017-04-19T09:35:19.774Z,976.03
2017-04-19T09:36:22.739Z,976.08
2017-04-19T09:37:25.091Z,976.10
2017-04-19T09:38:27.454Z,976.08
2017-04-19T09:39:29.815Z,976.09
2017-04-19T09:40:32.180Z,976.08
2017-04-19T09:41:35.091Z,976.11
2017-04-19T09:42:37.457Z,976.16
2017-04-19T09:43:39.823Z,976.12
2017-04-19T09:44:42.179Z,976.14
2017-04-19T09:45:44.538Z,976.18
2017-04-19T09:46:49.408Z,976.19
2017-04-19T09:47:51.780Z,976.14
2017-04-19T09:48:54.131Z,976.21
2017-04-19T09:49:56.490Z,976.23
2017-04-19T09:50:59.049Z,976.18
2017-04-19T09:52:01.976Z,976.21
2017-04-19T09:53:04.335Z,976.24
2017-04-19T09:54:06.690Z,976.22
2017-04-19T09:55:09.050Z,976.18
2017-04-19T09:56:11.428Z,976.17
2017-04-19T09:57:14.332Z,976.15
2017-04-19T09:58:16.689Z,976.11
2017-04-19T09:59:19.050Z,976.15
2017-04-19T10:00:21.407Z,976.14
2017-04-19T10:01:23.770Z,976.13
2017-04-19T10:02:26.735Z,976.11
2017-04-19T10:03:29.098Z,976.10
2017-04-19T10:04:31.462Z,976.10
2017-04-19T10:05:33.817Z,976.10
2017-04-19T10:06:36.181Z,976.11
2017-04-19T10:07:39.154Z,976.11
2017-04-19T10:08:41.507Z,976.09
2017-04-19T10:09:43.883Z,976.10
2017-04-19T10:10:46.236Z,976.09
2017-04-19T10:11:49.796Z,976.08
2017-04-19T10:12:52.761Z,976.09
2017-04-19T10:13:55.117Z,976.13
2017-04-19T10:14:57.479Z,976.09
2017-04-19T10:15:59.849Z,976.11
2017-04-19T10:17:02.415Z,976.12
2017-04-19T10:18:05.372Z,976.15
2017-04-19T10:19:07.736Z,976.12
2017-04-19T10:20:10.095Z,976.15
2017-04-19T10:21:12.450Z,976.18
2017-04-19T10:22:14.823Z,976.17
2017-04-19T10:23:17.782Z,976.18
2017-04-19T10:24:20.141Z,976.20
2017-04-19T10:25:22.493Z,976.17
2017-04-19T10:26:24.864Z,976.22
2017-04-19T10:27:27.223Z,976.20
2017-04-19T10:28:30.186Z,976.24
2017-04-19T10:29:32.550Z,976.19
2017-04-19T10:30:34.909Z,976.21
2017-04-19T10:31:37.276Z,976.22
2017-04-19T10:32:39.635Z,976.26
2017-04-19T10:33:45.919Z,976.22
2017-04-19T10:34:48.273Z,976.22
2017-04-19T10:35:50.830Z,976.23
2017-04-19T10:36:53.399Z,976.20
2017-04-19T10:37:55.762Z,976.22
2017-04-19T10:38:58.725Z,976.24
2017-04-19T10:40:01.084Z,976.20
2017-04-19T10:41:03.450Z,976.21
2017-04-19T10:42:05.797Z,976.20
2017-04-19T10:43:08.168Z,976.22
2017-04-19T10:44:13.076Z,976.21
2017-04-19T10:45:15.441Z,976.23
2017-04-19T10:46:17.796Z,976.25
2017-04-19T10:47:20.163Z,976.25
2017-04-19T10:48:22.522Z,976.27
2017-04-19T10:49:25.587Z,976.28
2017-04-19T10:50:27.947Z,976.27
2017-04-19T10:51:30.309Z,976.29
2017-04-19T10:52:32.668Z,976.34
2017-04-19T10:53:35.025Z,976.33
2017-04-19T10:54:37.988Z,976.32
2017-04-19T10:55:40.351Z,976.35
2017-04-19T10:56:42.906Z,976.38
2017-04-19T10:57:45.276Z,976.37
2017-04-19T10:58:47.631Z,976.37
2017-04-19T10:59:50.589Z,976.33
2017-04-19T11:00:53.153Z,976.35
2017-04-19T11:01:56.927Z,976.37
2017-04-19T11:02:59.286Z,976.34
2017-04-19T11:04:01.845Z,976.38
2017-04-19T11:05:04.762Z,976.36
2017-04-19T11:06:07.124Z,976.37
2017-04-19T11:07:09.476Z,976.33
2017-04-19T11:08:11.839Z,976.37
2017-04-19T11:09:14.204Z,976.36
2017-04-19T11:10:17.273Z,976.37
2017-04-19T11:11:19.636Z,976.40
2017-04-19T11:12:21.996Z,976.41
2017-04-19T11:13:24.357Z,976.42
2017-04-19T11:14:26.727Z,976.41
2017-04-19T11:15:29.838Z,976.40
2017-04-19T11:16:32.200Z,976.42
2017-04-19T11:17:34.562Z,976.41
2017-04-19T11:18:36.925Z,976.42
2017-04-19T11:19:39.276Z,976.43
2017-04-19T11:20:42.399Z,976.43
2017-04-19T11:21:44.962Z,976.42
2017-04-19T11:22:47.336Z,976.42
2017-04-19T11:23:49.693Z,976.43
2017-04-19T11:24:52.054Z,976.45
2017-04-19T11:25:58.214Z,976.43
2017-04-19T11:27:00.577Z,976.44
2017-04-19T11:28:02.937Z,976.45
2017-04-19T11:29:05.295Z,976.48
2017-04-19T11:30:07.655Z,976.44
2017-04-19T11:31:12.529Z,976.43
2017-04-19T11:32:14.880Z,976.43
2017-04-19T11:33:17.243Z,976.46
2017-04-19T11:34:19.604Z,976.48
2017-04-19T11:35:21.973Z,976.47
2017-04-19T11:36:24.932Z,976.51
2017-04-19T11:37:27.292Z,976.46
2017-04-19T11:38:29.649Z,976.46
2017-04-19T11:39:32.030Z,976.46
2017-04-19T11:40:34.387Z,976.48
2017-04-19T11:41:37.295Z,976.47
2017-04-19T11:42:39.651Z,976.52
2017-04-19T11:43:42.020Z,976.52
2017-04-19T11:44:44.375Z,976.55
2017-04-19T11:45:46.736Z,976.57
2017-04-19T11:46:49.704Z,976.59
2017-04-19T11:47:52.071Z,976.62
2017-04-19T11:48:54.435Z,976.66
2017-04-19T11:49:56.791Z,976.63
2017-04-19T11:50:59.153Z,976.64
2017-04-19T11:52:04.081Z,976.64
2017-04-19T11:53:06.440Z,976.70
2017-04-19T11:54:08.811Z,976.68
2017-04-19T11:55:11.176Z,976.70
2017-04-19T11:56:13.536Z,976.72
2017-04-19T11:57:16.503Z,976.73
2017-04-19T11:58:18.866Z,976.74
2017-04-19T11:59:21.423Z,976.74
2017-04-19T12:00:23.798Z,976.72
2017-04-19T12:01:26.157Z,976.73
2017-04-19T12:02:29.128Z,976.76
2017-04-19T12:03:31.489Z,976.78
2017-04-19T12:04:33.848Z,976.78
2017-04-19T12:05:36.216Z,976.81
2017-04-19T12:06:38.581Z,976.82
2017-04-19T12:07:41.500Z,976.84
2017-04-19T12:08:43.860Z,976.88
2017-04-19T12:09:46.231Z,976.91
2017-04-19T12:10:48.598Z,976.92
2017-04-19T12:11:50.958Z,976.89
2017-04-19T12:12:53.874Z,976.93
2017-04-19T12:13:56.237Z,976.95
2017-04-19T12:14:58.600Z,977.00
2017-04-19T12:16:00.973Z,976.99
2017-04-19T12:17:03.329Z,976.99
2017-04-19T12:18:08.249Z,976.99
2017-04-19T12:19:10.621Z,977.03
2017-04-19T12:20:12.981Z,977.03
2017-04-19T12:21:15.342Z,977.03
2017-04-19T12:22:17.906Z,977.06
2017-04-19T12:23:20.972Z,977.06
2017-04-19T12:24:23.338Z,977.09
2017-04-19T12:25:25.703Z,977.10
2017-04-19T12:26:28.078Z,977.16
2017-04-19T12:27:30.433Z,977.11
2017-04-19T12:28:35.356Z,977.21
2017-04-19T12:29:37.723Z,977.22
2017-04-19T12:30:40.090Z,977.24
2017-04-19T12:31:42.455Z,977.26
2017-04-19T12:32:44.821Z,977.28
2017-04-19T12:33:47.785Z,977.26
2017-04-19T12:34:50.152Z,977.30
2017-04-19T12:35:52.511Z,977.31
2017-04-19T12:36:54.884Z,977.34
2017-04-19T12:37:57.263Z,977.35
2017-04-19T12:39:00.183Z,977.40
2017-04-19T12:40:02.543Z,977.41
2017-04-19T12:41:04.911Z,977.44
2017-04-19T12:42:07.283Z,977.48
2017-04-19T12:43:09.650Z,977.53
2017-04-19T12:44:12.612Z,977.54
2017-04-19T12:45:14.976Z,977.50
2017-04-19T12:46:17.344Z,977.57
2017-04-19T12:47:19.710Z,977.64
2017-04-19T12:48:22.074Z,977.60
2017-04-19T12:49:25.141Z,977.64
2017-04-19T12:50:27.507Z,977.60
2017-04-19T12:51:29.876Z,977.65
2017-04-19T12:52:32.242Z,977.71
2017-04-19T12:53:34.610Z,977.83
2017-04-19T12:54:37.533Z,977.79
2017-04-19T12:55:39.898Z,977.82
2017-04-19T12:56:42.263Z,977.86
2017-04-19T12:57:44.629Z,977.88
2017-04-19T12:58:46.993Z,977.91
2017-04-19T12:59:49.958Z,977.93
2017-04-19T13:00:52.326Z,977.80
2017-04-19T13:01:54.696Z,977.85
2017-04-19T13:02:57.069Z,977.81